createdAt,value
2022-08-08T00:00:55.782Z,18.33
2022-08-08T00:03:32.754Z,18.22
2022-08-08T00:07:12.418Z,18.15
2022-08-08T00:10:17.006Z,18.09
2022-08-08T00:14:16.953Z,18.06
2022-08-08T00:16:43.729Z,18.04
2022-08-08T00:19:32.953Z,18.03
2022-08-08T00:22:23.063Z,18.02
2022-08-08T00:25:19.876Z,18.00
2022-08-08T00:28:33.991Z,17.94
2022-08-08T00:32:20.810Z,17.91
2022-08-08T00:35:04.478Z,17.86
2022-08-08T00:38:01.273Z,17.81
2022-08-08T00:41:21.925Z,17.72
2022-08-08T00:44:32.967Z,17.63
2022-08-08T00:48:05.276Z,17.55
2022-08-08T00:51:03.096Z,17.55
2022-08-08T00:54:04.527Z,17.52
2022-08-08T00:57:07.955Z,17.55
2022-08-08T01:00:23.772Z,17.51
2022-08-08T01:03:59.628Z,17.50
2022-08-08T01:06:42.013Z,17.40
2022-08-08T01:09:42.137Z,17.39
2022-08-08T01:12:53.955Z,17.33
2022-08-08T01:15:58.750Z,17.36
2022-08-08T01:19:25.312Z,17.33
2022-08-08T01:22:41.845Z,17.38
2022-08-08T01:25:55.973Z,17.37
2022-08-08T01:28:54.976Z,17.42
2022-08-08T01:32:15.944Z,17.39
2022-08-08T01:35:14.925Z,17.35
2022-08-08T01:38:14.936Z,17.37
2022-08-08T01:41:15.914Z,17.36
2022-08-08T01:44:39.284Z,17.33
2022-08-08T01:48:16.991Z,17.25
2022-08-08T01:50:57.886Z,17.25
2022-08-08T01:55:26.799Z,17.19
2022-08-08T01:57:23.878Z,17.21
2022-08-08T02:00:22.946Z,17.18
2022-08-08T02:03:55.789Z,17.17
2022-08-08T02:06:57.914Z,17.07
2022-08-08T02:10:03.306Z,17.01
2022-08-08T02:13:06.936Z,16.99
2022-08-08T02:16:06.191Z,17.00
2022-08-08T02:19:09.958Z,17.02
2022-08-08T02:22:45.859Z,17.03
2022-08-08T02:25:48.765Z,17.06
2022-08-08T02:28:55.815Z,17.09
2022-08-08T02:32:22.849Z,17.07
2022-08-08T02:35:30.998Z,17.05
2022-08-08T02:38:53.078Z,17.04
2022-08-08T02:42:04.372Z,17.04
2022-08-08T02:44:59.935Z,17.02
2022-08-08T02:48:13.248Z,16.96
2022-08-08T02:51:47.605Z,16.92
2022-08-08T02:54:51.887Z,16.89
2022-08-08T02:58:03.898Z,16.87
2022-08-08T03:01:15.274Z,16.89
2022-08-08T03:05:04.906Z,16.92
2022-08-08T03:08:15.025Z,16.91
2022-08-08T03:11:25.564Z,16.91
2022-08-08T03:16:00.662Z,16.84
2022-08-08T03:17:40.825Z,16.85
2022-08-08T03:20:25.791Z,16.82
2022-08-08T03:23:18.080Z,16.77
2022-08-08T03:26:13.986Z,16.75
2022-08-08T03:29:01.133Z,16.70
2022-08-08T03:32:18.115Z,16.72
2022-08-08T03:35:10.772Z,16.69
2022-08-08T03:38:53.402Z,16.74
2022-08-08T03:42:11.520Z,16.73
2022-08-08T03:44:35.864Z,16.74
2022-08-08T03:47:45.136Z,16.76
2022-08-08T03:50:31.872Z,16.75
2022-08-08T03:53:42.305Z,16.80
2022-08-08T03:56:37.622Z,16.83
2022-08-08T03:59:34.751Z,16.89
2022-08-08T04:02:52.547Z,16.92
2022-08-08T04:05:49.787Z,16.93
2022-08-08T04:08:41.759Z,16.92
2022-08-08T04:11:58.191Z,16.96
2022-08-08T04:14:50.828Z,16.96
2022-08-08T04:17:59.399Z,16.91
2022-08-08T04:20:50.654Z,16.93
2022-08-08T04:24:05.602Z,16.98
2022-08-08T04:26:58.653Z,17.02
2022-08-08T04:29:55.210Z,17.03
2022-08-08T04:32:51.733Z,17.07
2022-08-08T04:35:50.640Z,17.10
2022-08-08T04:38:42.807Z,17.14
2022-08-08T04:41:27.012Z,17.14
2022-08-08T04:44:27.040Z,17.14
2022-08-08T04:47:24.423Z,17.12
2022-08-08T04:50:25.150Z,17.09
2022-08-08T04:54:36.572Z,17.05
2022-08-08T04:56:44.736Z,17.09
2022-08-08T04:59:42.485Z,17.14
2022-08-08T05:02:30.671Z,17.18
2022-08-08T05:05:16.218Z,17.24
2022-08-08T05:08:21.745Z,17.29
2022-08-08T05:11:26.413Z,17.34
2022-08-08T05:14:23.768Z,17.36
2022-08-08T05:17:15.854Z,17.39
2022-08-08T05:20:15.280Z,17.43
2022-08-08T05:23:11.736Z,17.43
2022-08-08T05:26:09.736Z,17.48
2022-08-08T05:29:11.814Z,17.47
2022-08-08T05:32:05.348Z,17.48
2022-08-08T05:35:05.234Z,17.54
2022-08-08T05:38:05.167Z,17.58
2022-08-08T05:41:23.343Z,17.68
2022-08-08T05:44:20.797Z,17.70
2022-08-08T05:47:10.769Z,17.76
2022-08-08T05:49:54.001Z,17.80
2022-08-08T05:52:51.805Z,17.82
2022-08-08T05:56:10.602Z,17.88
2022-08-08T05:59:05.926Z,17.92
2022-08-08T06:02:30.792Z,17.97
2022-08-08T06:05:34.815Z,18.03
2022-08-08T06:08:34.825Z,18.11
2022-08-08T06:11:28.151Z,18.17
2022-08-08T06:14:25.915Z,18.20
2022-08-08T06:17:32.074Z,18.26
2022-08-08T06:20:39.626Z,18.33
2022-08-08T06:23:49.030Z,18.40
2022-08-08T06:26:54.690Z,18.45
2022-08-08T06:30:00.890Z,18.49
2022-08-08T06:33:00.974Z,18.61
2022-08-08T06:36:08.947Z,18.67
2022-08-08T06:38:50.763Z,18.80
2022-08-08T06:41:49.006Z,18.92
2022-08-08T06:44:46.691Z,19.07
2022-08-08T06:47:52.580Z,19.16
2022-08-08T06:50:58.132Z,19.34
2022-08-08T06:53:56.407Z,19.57
2022-08-08T06:56:51.518Z,19.74
2022-08-08T07:00:10.399Z,19.92
2022-08-08T07:02:54.787Z,20.10
2022-08-08T07:06:02.378Z,20.28
2022-08-08T07:09:01.119Z,20.43
2022-08-08T07:12:03.720Z,20.63
2022-08-08T07:15:15.423Z,20.81
2022-08-08T07:18:40.579Z,20.99
2022-08-08T07:21:37.598Z,21.12
2022-08-08T07:24:35.827Z,21.29
2022-08-08T07:28:01.871Z,21.45
2022-08-08T07:30:34.814Z,21.60
2022-08-08T07:33:28.739Z,21.76
2022-08-08T07:36:50.545Z,21.93
2022-08-08T07:39:57.591Z,22.08
2022-08-08T07:42:57.105Z,22.22
2022-08-08T07:46:17.665Z,22.34
2022-08-08T07:49:14.343Z,22.53
2022-08-08T07:51:53.576Z,22.66
2022-08-08T07:54:51.665Z,22.75
2022-08-08T07:57:56.633Z,22.91
2022-08-08T08:00:56.954Z,23.04
2022-08-08T08:03:45.675Z,23.11
2022-08-08T08:06:38.553Z,23.20
2022-08-08T08:09:33.137Z,23.25
2022-08-08T08:12:55.844Z,23.32
2022-08-08T08:16:03.895Z,23.35
2022-08-08T08:18:55.970Z,23.46
2022-08-08T08:21:53.433Z,23.45
2022-08-08T08:24:47.569Z,23.34
2022-08-08T08:27:35.537Z,23.27
2022-08-08T08:30:26.467Z,23.24
2022-08-08T08:33:33.213Z,23.35
2022-08-08T08:36:31.844Z,23.52
2022-08-08T08:39:59.675Z,23.59
2022-08-08T08:42:58.781Z,23.62
2022-08-08T08:45:58.799Z,23.56
2022-08-08T08:49:16.866Z,23.50
2022-08-08T08:55:31.278Z,23.36
2022-08-08T08:58:27.169Z,23.32
2022-08-08T09:01:27.939Z,23.26
2022-08-08T09:04:31.233Z,23.24
2022-08-08T09:11:03.044Z,23.32
2022-08-08T09:13:55.807Z,23.43
2022-08-08T09:16:56.747Z,23.55
2022-08-08T09:21:58.127Z,23.52
2022-08-08T09:22:43.639Z,23.53
2022-08-08T09:25:54.611Z,23.59
2022-08-08T09:28:50.607Z,23.75
2022-08-08T09:31:56.181Z,23.92
2022-08-08T09:34:54.668Z,24.19
2022-08-08T09:38:01.131Z,24.38
2022-08-08T09:44:12.851Z,24.52
2022-08-08T10:17:57.553Z,24.29
2022-08-08T10:20:41.374Z,24.20
2022-08-08T10:23:47.143Z,24.15
2022-08-08T10:26:58.586Z,24.10
2022-08-08T10:29:58.284Z,24.03
2022-08-08T10:32:56.585Z,23.97
2022-08-08T10:36:07.700Z,23.95
2022-08-08T10:39:05.796Z,23.88
2022-08-08T10:42:15.376Z,23.80
2022-08-08T10:45:09.012Z,23.75
2022-08-08T10:48:09.606Z,23.68
2022-08-08T10:50:59.746Z,23.63
2022-08-08T10:53:59.570Z,23.56
2022-08-08T10:56:59.859Z,23.55
2022-08-08T10:59:56.448Z,23.46
2022-08-08T11:02:53.495Z,23.44
2022-08-08T11:05:51.794Z,23.41
2022-08-08T11:08:57.602Z,23.33
2022-08-08T11:12:05.994Z,23.27
2022-08-08T11:15:10.429Z,23.19
2022-08-08T11:18:07.402Z,23.18
2022-08-08T11:21:09.818Z,23.16
2022-08-08T11:24:09.014Z,23.13
2022-08-08T11:27:10.723Z,23.07
2022-08-08T11:30:31.823Z,23.03
2022-08-08T11:33:51.917Z,22.98
2022-08-08T11:36:39.581Z,22.96
2022-08-08T11:39:36.750Z,22.96
2022-08-08T11:42:31.048Z,22.93
2022-08-08T11:45:29.775Z,22.90
2022-08-08T11:48:36.559Z,22.91
2022-08-08T11:51:39.854Z,22.93
2022-08-08T11:54:50.531Z,22.91
2022-08-08T11:57:53.432Z,22.93
2022-08-08T12:00:56.791Z,22.96
2022-08-08T12:03:47.371Z,22.97
2022-08-08T12:06:33.797Z,22.96
2022-08-08T12:09:40.760Z,22.97
2022-08-08T12:12:49.633Z,22.98
2022-08-08T12:15:50.200Z,22.95
2022-08-08T12:18:47.581Z,22.98
2022-08-08T12:21:59.748Z,23.01
2022-08-08T12:24:51.305Z,23.02
2022-08-08T12:27:53.385Z,23.08
2022-08-08T12:30:56.653Z,23.08
2022-08-08T12:34:02.742Z,23.10
2022-08-08T12:44:14.658Z,23.25
2022-08-08T12:47:58.767Z,23.29
2022-08-08T12:50:47.102Z,23.33
2022-08-08T12:53:45.442Z,23.34
2022-08-08T12:56:43.505Z,23.36
2022-08-08T13:00:05.264Z,23.41
2022-08-08T13:03:09.539Z,23.43
2022-08-08T13:06:13.690Z,23.48
2022-08-08T13:09:11.568Z,23.53
2022-08-08T13:12:27.788Z,23.61
2022-08-08T13:15:26.644Z,23.69
2022-08-08T13:18:27.354Z,23.76
2022-08-08T13:21:36.478Z,23.82
2022-08-08T13:24:48.709Z,23.88
2022-08-08T13:27:47.512Z,23.89
2022-08-08T13:30:43.538Z,23.95
2022-08-08T13:33:43.418Z,23.97
2022-08-08T13:36:42.616Z,23.99
2022-08-08T13:39:42.607Z,24.00
2022-08-08T13:42:26.763Z,24.00
2022-08-08T13:45:24.882Z,23.98
2022-08-08T13:48:25.215Z,23.97
2022-08-08T13:51:34.118Z,23.96
2022-08-08T13:54:44.458Z,23.95
2022-08-08T13:58:00.792Z,23.95
2022-08-08T14:00:54.544Z,23.96
2022-08-08T14:03:54.226Z,23.94
2022-08-08T14:06:51.740Z,23.96
2022-08-08T14:10:05.635Z,23.95
2022-08-08T14:13:30.658Z,23.93
2022-08-08T14:16:22.412Z,23.92
2022-08-08T14:19:55.613Z,23.94
2022-08-08T14:22:43.000Z,23.96
2022-08-08T14:25:40.271Z,23.95
2022-08-08T14:28:43.312Z,23.96
2022-08-08T14:32:10.792Z,23.93
2022-08-08T14:34:42.264Z,23.94
2022-08-08T14:37:43.151Z,23.91
2022-08-08T14:40:59.432Z,23.91
2022-08-08T14:44:09.804Z,23.86
2022-08-08T14:47:20.930Z,23.88
2022-08-08T14:50:38.267Z,23.87
2022-08-08T14:53:55.047Z,23.87
2022-08-08T14:56:53.326Z,23.85
2022-08-08T14:59:55.853Z,23.85
2022-08-08T15:02:58.634Z,23.83
2022-08-08T15:06:02.409Z,23.80
2022-08-08T15:12:44.613Z,23.78
2022-08-08T15:16:03.254Z,23.77
2022-08-08T15:25:40.315Z,23.67
2022-08-08T15:28:33.891Z,23.64
2022-08-08T15:32:19.203Z,23.64
2022-08-08T15:35:42.004Z,23.61
2022-08-08T15:38:34.398Z,23.61
2022-08-08T15:45:30.003Z,23.56
2022-08-08T15:48:21.531Z,23.53
2022-08-08T15:51:08.034Z,23.51
2022-08-08T15:53:49.982Z,23.49
2022-08-08T15:57:54.765Z,23.46
2022-08-08T16:00:28.483Z,23.45
2022-08-08T16:04:00.541Z,23.41
2022-08-08T16:06:54.867Z,23.39
2022-08-08T16:13:04.464Z,23.38
2022-08-08T16:13:27.174Z,23.38
2022-08-08T16:15:18.142Z,23.38
2022-08-08T16:18:05.921Z,23.36
2022-08-08T16:20:40.961Z,23.34
2022-08-08T16:23:17.186Z,23.33
2022-08-08T16:25:54.631Z,23.31
2022-08-08T16:28:36.280Z,23.30
2022-08-08T16:31:49.642Z,23.28
2022-08-08T16:34:24.891Z,23.25
2022-08-08T16:36:56.173Z,23.24
2022-08-08T16:40:01.164Z,23.21
2022-08-08T16:42:25.053Z,23.21
2022-08-08T16:49:50.283Z,23.16
2022-08-08T16:55:00.973Z,23.15
2022-08-08T16:55:33.571Z,23.13
2022-08-08T16:58:14.268Z,23.12
2022-08-08T17:00:54.551Z,23.10
2022-08-08T17:03:58.032Z,23.07
2022-08-08T17:06:36.032Z,23.06
2022-08-08T17:09:15.877Z,23.03
2022-08-08T17:16:14.911Z,23.00
2022-08-08T17:18:49.440Z,22.96
2022-08-08T17:21:26.005Z,22.94
2022-08-08T17:24:00.066Z,22.93
2022-08-08T17:26:53.797Z,22.93
2022-08-08T17:29:33.962Z,22.91
2022-08-08T17:32:07.805Z,22.89
2022-08-08T17:34:53.831Z,22.88
2022-08-08T17:37:31.544Z,22.85
2022-08-08T17:40:19.447Z,22.81
2022-08-08T17:42:51.266Z,22.75
2022-08-08T17:45:24.121Z,22.70
2022-08-08T17:47:56.688Z,22.67
2022-08-08T17:50:30.090Z,22.64
2022-08-08T17:53:01.973Z,22.63
2022-08-08T17:56:05.690Z,22.60
2022-08-08T17:58:32.567Z,22.57
2022-08-08T18:01:03.584Z,22.55
2022-08-08T18:03:53.441Z,22.52
2022-08-08T18:06:30.726Z,22.50
2022-08-08T18:09:09.060Z,22.49
2022-08-08T18:11:54.373Z,22.47
2022-08-08T18:14:35.435Z,22.44
2022-08-08T18:18:09.446Z,22.40
2022-08-08T18:21:58.778Z,22.37
2022-08-08T18:24:35.074Z,22.34
2022-08-08T18:27:17.295Z,22.32
2022-08-08T18:29:53.161Z,22.31
2022-08-08T18:32:24.020Z,22.29
2022-08-08T18:43:43.337Z,22.23
2022-08-08T18:46:56.075Z,22.19
2022-08-08T18:49:14.695Z,22.17
2022-08-08T18:51:52.424Z,22.14
2022-08-08T18:54:30.011Z,22.12
2022-08-08T18:57:02.306Z,22.09
2022-08-08T18:59:40.729Z,22.07
2022-08-08T19:06:11.625Z,22.01
2022-08-08T19:08:43.833Z,21.98
2022-08-08T19:11:17.478Z,21.95
2022-08-08T19:14:01.068Z,21.93
2022-08-08T19:16:42.085Z,21.90
2022-08-08T19:19:18.318Z,21.85
2022-08-08T19:21:50.645Z,21.82
2022-08-08T19:24:43.773Z,21.80
2022-08-08T19:31:13.079Z,21.74
2022-08-08T19:34:04.928Z,21.71
2022-08-08T19:36:39.200Z,21.69
2022-08-08T19:46:15.339Z,21.63
2022-08-08T19:48:55.848Z,21.61
2022-08-08T19:51:34.670Z,21.61
2022-08-08T19:54:15.091Z,21.59
2022-08-08T19:56:48.755Z,21.58
2022-08-08T19:59:22.428Z,21.56
2022-08-08T20:02:11.904Z,21.55
2022-08-08T20:04:57.586Z,21.54
2022-08-08T20:08:28.248Z,21.53
2022-08-08T20:10:19.518Z,21.52
2022-08-08T20:14:12.604Z,21.50
2022-08-08T20:16:29.520Z,21.48
2022-08-08T20:19:01.602Z,21.47
2022-08-08T20:21:37.902Z,21.45
2022-08-08T20:24:11.123Z,21.44
2022-08-08T20:26:47.264Z,21.42
2022-08-08T20:29:45.833Z,21.40
2022-08-08T20:32:31.958Z,21.39
2022-08-08T20:35:04.379Z,21.37
2022-08-08T20:37:46.822Z,21.36
2022-08-08T20:40:33.743Z,21.32
2022-08-08T20:43:16.445Z,21.32
2022-08-08T20:46:11.414Z,21.31
2022-08-08T20:48:42.089Z,21.29
2022-08-08T20:51:14.320Z,21.28
2022-08-08T20:54:00.758Z,21.27
2022-08-08T20:57:05.718Z,21.25
2022-08-08T20:59:25.577Z,21.24
2022-08-08T21:02:06.489Z,21.22
2022-08-08T21:04:38.364Z,21.21
2022-08-08T21:07:13.915Z,21.19
2022-08-08T21:10:01.809Z,21.17
2022-08-08T21:12:36.664Z,21.14
2022-08-08T21:15:11.178Z,21.11
2022-08-08T21:17:56.216Z,21.09
2022-08-08T21:20:34.015Z,21.06
2022-08-08T21:23:08.966Z,21.03
2022-08-08T21:25:42.449Z,20.99
2022-08-08T21:34:41.318Z,20.93
2022-08-08T21:37:23.297Z,20.91
2022-08-08T21:40:14.294Z,20.89
2022-08-08T21:43:14.132Z,20.88
2022-08-08T21:48:06.011Z,20.86
2022-08-08T21:48:41.466Z,20.82
2022-08-08T21:51:15.081Z,20.80
2022-08-08T21:55:02.398Z,20.77
2022-08-08T21:57:24.729Z,20.73
2022-08-08T22:00:02.277Z,20.71
2022-08-08T22:02:45.329Z,20.70
2022-08-08T22:05:24.155Z,20.68
2022-08-08T22:07:58.572Z,20.66
2022-08-08T22:10:32.769Z,20.63
2022-08-08T22:13:17.680Z,20.63
2022-08-08T22:15:58.905Z,20.59
2022-08-08T22:18:34.197Z,20.57
2022-08-08T22:21:13.972Z,20.53
2022-08-08T22:23:53.766Z,20.52
2022-08-08T22:26:30.940Z,20.49
2022-08-08T22:29:56.708Z,20.45
2022-08-08T22:31:58.299Z,20.42
2022-08-08T22:34:39.170Z,20.40
2022-08-08T22:37:14.652Z,20.38
2022-08-08T22:40:00.135Z,20.37
2022-08-08T22:42:34.961Z,20.35
2022-08-08T22:45:12.914Z,20.34
2022-08-08T22:47:48.758Z,20.35
2022-08-08T22:50:40.520Z,20.34
2022-08-08T22:54:30.505Z,20.33
2022-08-08T22:56:02.246Z,20.31
2022-08-08T22:58:35.617Z,20.29
2022-08-08T23:01:16.490Z,20.29
2022-08-08T23:04:04.557Z,20.30
2022-08-08T23:06:36.006Z,20.30
2022-08-08T23:09:09.488Z,20.30
2022-08-08T23:12:28.861Z,20.30
2022-08-08T23:15:10.667Z,20.29
2022-08-08T23:17:53.912Z,20.28
2022-08-08T23:20:27.346Z,20.28
2022-08-08T23:23:31.509Z,20.28
2022-08-08T23:26:04.936Z,20.28
2022-08-08T23:28:39.434Z,20.29
2022-08-08T23:31:10.614Z,20.29
2022-08-08T23:34:17.256Z,20.29
2022-08-08T23:36:52.826Z,20.28
2022-08-08T23:39:42.037Z,20.29
2022-08-08T23:42:21.401Z,20.29
2022-08-08T23:45:12.789Z,20.28
2022-08-08T23:49:00.411Z,20.28
2022-08-08T23:50:34.204Z,20.27
2022-08-08T23:53:07.654Z,20.26
2022-08-08T23:56:24.123Z,20.26
2022-08-08T23:59:03.560Z,20.25
